Time;durP1;ratioP1;P1;durP2;ratioP2;P2;SDS_P1;SDS_P2;PMS_P1;PMS_P2;Temp;Humidity;BMP_temperature;BMP_pressure;BME280_temperature;BME280_humidity;BME280_pressure;Samples;Min_cycle;Max_cycle;Signal;HPM_P1;HPM_P2
2022/09/14 00:00:44;;;;;;;2.08;0.30;;;22.00;72.90;;;;;;5074939;28;20104;-74
2022/09/14 00:03:10;;;;;;;1.40;0.30;;;21.90;72.80;;;;;;5075020;28;20487;-74
2022/09/14 00:05:35;;;;;;;4.60;0.30;;;21.90;73.30;;;;;;5075176;28;20415;-74
2022/09/14 00:08:02;;;;;;;1.73;0.32;;;21.90;73.50;;;;;;5074853;28;20020;-75
2022/09/14 00:10:27;;;;;;;4.55;0.20;;;21.90;73.40;;;;;;5074907;28;20066;-75
2022/09/14 00:12:53;;;;;;;4.50;0.30;;;22.00;73.50;;;;;;5074870;28;20028;-74
2022/09/14 00:15:19;;;;;;;3.70;0.30;;;22.00;73.50;;;;;;5074883;28;20093;-74
2022/09/14 00:17:44;;;;;;;4.72;0.25;;;22.10;73.10;;;;;;5074738;28;20414;-74
2022/09/14 00:20:10;;;;;;;3.30;0.22;;;22.00;73.30;;;;;;5074644;28;20052;-75
2022/09/14 00:22:36;;;;;;;1.45;0.20;;;22.00;73.50;;;;;;5074422;28;20031;-75
2022/09/14 00:25:02;;;;;;;2.60;0.30;;;22.00;73.70;;;;;;5074430;28;20032;-75
2022/09/14 00:27:28;;;;;;;1.27;0.20;;;22.00;73.70;;;;;;5074356;28;20048;-75
2022/09/14 00:29:53;;;;;;;1.50;0.20;;;22.00;73.40;;;;;;5074375;28;20398;-74
2022/09/14 00:32:19;;;;;;;1.63;0.30;;;22.00;73.40;;;;;;5074207;28;20112;-75
2022/09/14 00:34:44;;;;;;;1.80;0.30;;;22.00;73.50;;;;;;5074556;28;20032;-75
2022/09/14 00:37:10;;;;;;;1.48;0.22;;;22.10;73.60;;;;;;5074007;28;20071;-74
2022/09/14 00:39:36;;;;;;;1.00;0.20;;;22.10;73.50;;;;;;5074233;28;20428;-75
2022/09/14 00:42:04;;;;;;;1.73;0.28;;;22.10;74.30;;;;;;5074017;28;20028;-75
2022/09/14 00:44:29;;;;;;;1.50;0.20;;;22.10;73.50;;;;;;5074314;28;20353;-74
2022/09/14 00:47:01;;;;;;;1.33;0.20;;;22.00;73.60;;;;;;5073947;28;20021;-74
2022/09/14 00:49:32;;;;;;;1.67;0.30;;;22.10;73.70;;;;;;5073692;28;20082;-74
2022/09/14 00:52:02;;;;;;;0.85;0.10;;;22.10;73.70;;;;;;5074047;28;20031;-74
2022/09/14 00:54:28;;;;;;;2.42;0.50;;;22.10;73.50;;;;;;5074212;28;20028;-74
2022/09/14 00:56:57;;;;;;;1.40;0.28;;;22.10;73.50;;;;;;5073784;28;20502;-74
2022/09/14 00:59:26;;;;;;;2.13;0.20;;;22.10;73.40;;;;;;5073620;28;20480;-74
2022/09/14 01:01:52;;;;;;;2.05;0.22;;;22.10;73.20;;;;;;5073765;28;20031;-75
2022/09/14 01:04:18;;;;;;;2.88;0.20;;;22.10;73.30;;;;;;5073640;28;20111;-75
2022/09/14 01:07:11;;;;;;;1.00;0.20;;;22.00;73.30;;;;;;5073116;28;20100;-75
2022/09/14 01:09:48;;;;;;;2.00;0.20;;;22.00;73.40;;;;;;5073523;28;20036;-75
2022/09/14 01:12:32;;;;;;;1.27;0.20;;;22.00;73.40;;;;;;5073870;28;20043;-75
2022/09/14 01:15:04;;;;;;;3.22;0.30;;;22.00;73.30;;;;;;5073409;28;20024;-75
2022/09/14 01:17:35;;;;;;;1.40;0.20;;;22.00;73.50;;;;;;5073635;28;20123;-75
2022/09/14 01:20:28;;;;;;;2.08;0.15;;;22.00;73.50;;;;;;5073624;28;20113;-75
2022/09/14 01:23:08;;;;;;;1.33;0.20;;;21.90;73.60;;;;;;5073296;28;20047;-74
2022/09/14 01:25:43;;;;;;;4.10;0.30;;;22.00;73.40;;;;;;5073584;28;20020;-75
2022/09/14 01:28:18;;;;;;;2.05;0.20;;;21.90;72.80;;;;;;5073353;28;20048;-75
2022/09/14 01:30:45;;;;;;;1.73;0.30;;;21.80;73.10;;;;;;5073632;28;20103;-75
2022/09/14 01:33:23;;;;;;;1.48;0.30;;;21.80;73.50;;;;;;5073353;28;20476;-75
2022/09/14 01:35:57;;;;;;;1.17;0.20;;;21.80;73.80;;;;;;5073426;28;20074;-75
2022/09/14 01:38:35;;;;;;;1.33;0.20;;;21.70;73.80;;;;;;5073371;28;20043;-75
2022/09/14 01:41:05;;;;;;;2.03;0.20;;;21.70;73.20;;;;;;5073549;28;20025;-75
2022/09/14 01:43:46;;;;;;;1.40;0.20;;;21.70;73.60;;;;;;5073597;28;20028;-75
2022/09/14 01:46:25;;;;;;;1.63;0.20;;;21.70;73.70;;;;;;5073182;28;20553;-75
2022/09/14 01:49:01;;;;;;;1.73;0.30;;;21.70;73.80;;;;;;5073693;28;20040;-75
2022/09/14 01:51:50;;;;;;;1.60;0.20;;;21.70;73.70;;;;;;5073430;28;20041;-75
2022/09/14 01:54:38;;;;;;;1.42;0.20;;;21.80;73.90;;;;;;5072985;28;20024;-75
2022/09/14 01:57:32;;;;;;;2.20;0.38;;;21.80;73.80;;;;;;5073227;28;20025;-75
2022/09/14 02:00:06;;;;;;;0.70;0.15;;;21.80;73.80;;;;;;5071510;28;20515;-75
2022/09/14 02:02:40;;;;;;;1.77;0.25;;;21.90;73.80;;;;;;5072915;28;20021;-74
2022/09/14 02:05:19;;;;;;;2.28;0.20;;;21.80;73.70;;;;;;5073274;28;20032;-74
2022/09/14 02:07:45;;;;;;;1.05;0.10;;;21.90;73.70;;;;;;5073185;28;20103;-75
2022/09/14 02:10:13;;;;;;;2.08;0.30;;;21.90;73.70;;;;;;5073074;28;20420;-74
2022/09/14 02:12:39;;;;;;;1.42;0.25;;;21.90;73.60;;;;;;5072954;28;20031;-75
2022/09/14 02:15:08;;;;;;;0.90;0.20;;;21.90;73.70;;;;;;5072688;28;20526;-74
2022/09/14 02:17:34;;;;;;;1.60;0.10;;;21.90;73.70;;;;;;5073031;28;20029;-74
2022/09/14 02:20:02;;;;;;;1.10;0.20;;;21.90;73.50;;;;;;5076230;28;20357;-75
2022/09/14 02:22:29;;;;;;;0.98;0.20;;;21.80;73.40;;;;;;5076870;28;20017;-75
2022/09/14 02:24:55;;;;;;;0.80;0.20;;;21.80;73.50;;;;;;5076531;28;20040;-74
2022/09/14 02:27:21;;;;;;;1.25;0.20;;;21.80;73.10;;;;;;5076718;28;20048;-74
2022/09/14 02:29:47;;;;;;;1.00;0.10;;;21.80;73.40;;;;;;5076626;28;20388;-75
2022/09/14 02:32:31;;;;;;;3.08;0.30;;;21.70;73.40;;;;;;5076598;28;20030;-74
2022/09/14 02:35:18;;;;;;;1.33;0.10;;;21.60;72.30;;;;;;5076440;28;20027;-74
2022/09/14 02:38:13;;;;;;;2.63;0.28;;;21.60;73.00;;;;;;5076491;28;20020;-75
2022/09/14 02:40:47;;;;;;;1.08;0.10;;;21.70;73.40;;;;;;5076753;28;20032;-74
2022/09/14 02:43:22;;;;;;;1.83;0.20;;;21.70;73.50;;;;;;5076713;28;20430;-75
2022/09/14 02:46:01;;;;;;;0.88;0.10;;;21.70;73.10;;;;;;5076202;28;20029;-74
2022/09/14 02:48:51;;;;;;;1.52;0.13;;;21.60;73.40;;;;;;5076540;28;20111;-75
2022/09/14 02:51:36;;;;;;;2.35;0.30;;;21.70;73.40;;;;;;5076160;28;20472;-74
2022/09/14 02:54:29;;;;;;;2.20;0.30;;;21.50;72.50;;;;;;5076437;28;20029;-75
2022/09/14 02:56:59;;;;;;;1.00;0.13;;;21.50;73.30;;;;;;5076095;28;20052;-74
2022/09/14 02:59:25;;;;;;;0.95;0.17;;;21.50;73.30;;;;;;5076308;28;20051;-74
2022/09/14 03:01:51;;;;;;;0.68;0.08;;;21.50;73.60;;;;;;5076011;28;20020;-74
2022/09/14 03:04:16;;;;;;;1.45;0.13;;;21.50;73.80;;;;;;5075961;28;20033;-74
2022/09/14 03:06:42;;;;;;;0.68;0.20;;;21.50;73.50;;;;;;5076424;28;20520;-74
2022/09/14 03:09:08;;;;;;;1.20;0.10;;;21.50;73.80;;;;;;5076023;28;20074;-74
2022/09/14 03:11:33;;;;;;;1.13;0.20;;;21.60;74.00;;;;;;5075866;28;20483;-74
2022/09/14 03:13:59;;;;;;;0.80;0.20;;;21.50;73.90;;;;;;5075830;28;20025;-74
2022/09/14 03:16:24;;;;;;;1.88;0.17;;;21.60;74.00;;;;;;5075991;28;20025;-74
2022/09/14 03:18:50;;;;;;;1.08;0.10;;;21.60;73.90;;;;;;5075993;28;20495;-74
2022/09/14 03:21:16;;;;;;;2.17;0.20;;;21.50;73.90;;;;;;5075793;28;20035;-74
2022/09/14 03:23:47;;;;;;;2.40;0.25;;;21.50;74.10;;;;;;5075521;28;20025;-74
2022/09/14 03:26:20;;;;;;;3.47;0.30;;;21.50;74.20;;;;;;5075379;28;20475;-74
2022/09/14 03:28:50;;;;;;;1.58;0.22;;;21.40;74.00;;;;;;5075356;28;20499;-74
2022/09/14 03:31:15;;;;;;;1.85;0.20;;;21.40;74.50;;;;;;5074473;28;20042;-74
2022/09/14 03:33:41;;;;;;;3.25;0.10;;;21.40;74.70;;;;;;5075192;28;20022;-74
2022/09/14 03:36:12;;;;;;;2.17;0.20;;;21.40;74.80;;;;;;5075339;28;20024;-74
2022/09/14 03:38:41;;;;;;;1.30;0.20;;;21.40;74.80;;;;;;5075228;28;20043;-74
2022/09/14 03:41:08;;;;;;;1.55;0.38;;;21.50;74.80;;;;;;5075369;28;20020;-74
2022/09/14 03:43:34;;;;;;;0.50;0.10;;;21.50;74.90;;;;;;5075441;28;20103;-74
2022/09/14 03:46:05;;;;;;;0.95;0.10;;;21.50;74.80;;;;;;5075019;28;20016;-74
2022/09/14 03:48:31;;;;;;;0.57;0.10;;;21.50;75.40;;;;;;5075602;28;20028;-74
2022/09/14 03:51:03;;;;;;;1.20;0.20;;;21.50;74.80;;;;;;5075164;28;20090;-74
2022/09/14 03:53:29;;;;;;;3.35;0.20;;;21.50;74.80;;;;;;5075080;28;20459;-74
2022/09/14 03:55:54;;;;;;;0.70;0.10;;;21.40;75.20;;;;;;5075367;28;20028;-73
2022/09/14 03:58:21;;;;;;;0.85;0.10;;;21.40;74.80;;;;;;5075195;28;20361;-74
2022/09/14 04:00:47;;;;;;;2.72;0.20;;;21.40;75.00;;;;;;5075055;28;20025;-74
2022/09/14 04:03:13;;;;;;;1.27;0.15;;;21.30;74.90;;;;;;5074782;28;20035;-74
2022/09/14 04:05:38;;;;;;;1.85;0.20;;;21.30;75.00;;;;;;5075043;28;20147;-74
2022/09/14 04:08:04;;;;;;;1.63;0.20;;;21.10;74.20;;;;;;5075058;28;20069;-73
2022/09/14 04:10:29;;;;;;;1.13;0.10;;;21.00;75.20;;;;;;5074777;28;20487;-74
2022/09/14 04:12:56;;;;;;;1.23;0.10;;;20.90;75.70;;;;;;5075003;28;20029;-73
2022/09/14 04:15:22;;;;;;;1.90;0.20;;;21.00;75.80;;;;;;5074696;28;20031;-74
2022/09/14 04:17:48;;;;;;;2.33;0.10;;;21.00;75.70;;;;;;5074871;28;20460;-74
2022/09/14 04:20:14;;;;;;;2.20;0.30;;;21.00;76.10;;;;;;5074756;28;20071;-74
2022/09/14 04:22:40;;;;;;;2.40;0.15;;;21.00;76.00;;;;;;5074721;28;20021;-74
2022/09/14 04:25:06;;;;;;;1.73;0.20;;;21.00;76.10;;;;;;5074161;28;20438;-74
2022/09/14 04:27:31;;;;;;;1.23;0.20;;;21.00;76.00;;;;;;5074594;28;20412;-74
2022/09/14 04:29:57;;;;;;;0.90;0.35;;;21.00;76.10;;;;;;5074420;28;20023;-74
2022/09/14 04:32:23;;;;;;;2.05;0.10;;;21.00;76.20;;;;;;5074294;28;20372;-74
2022/09/14 04:34:48;;;;;;;2.42;0.32;;;21.10;76.20;;;;;;5073901;28;20017;-74
2022/09/14 04:37:14;;;;;;;1.95;0.20;;;21.00;76.20;;;;;;5074033;28;20025;-74
2022/09/14 04:39:41;;;;;;;1.42;0.10;;;21.00;76.30;;;;;;5074110;28;20036;-74
2022/09/14 04:42:07;;;;;;;1.92;0.13;;;21.10;76.40;;;;;;5074112;28;20086;-74
2022/09/14 04:44:33;;;;;;;3.05;0.55;;;21.10;76.30;;;;;;5073755;28;20024;-74
2022/09/14 04:46:58;;;;;;;1.83;0.40;;;21.00;76.20;;;;;;5074266;28;20162;-74
2022/09/14 04:49:24;;;;;;;1.20;0.15;;;21.00;76.00;;;;;;5073878;28;20058;-74
2022/09/14 04:51:49;;;;;;;4.13;0.20;;;21.00;76.10;;;;;;5074184;28;20021;-75
2022/09/14 04:54:16;;;;;;;1.13;0.10;;;21.00;76.40;;;;;;5073915;28;20375;-75
2022/09/14 04:56:43;;;;;;;1.85;0.30;;;21.00;76.50;;;;;;5073886;28;20044;-75
2022/09/14 04:59:09;;;;;;;2.38;0.30;;;20.90;76.60;;;;;;5073974;28;20037;-75
2022/09/14 05:01:37;;;;;;;1.30;0.20;;;20.80;76.60;;;;;;5074013;28;20463;-75
2022/09/14 05:04:05;;;;;;;2.85;0.20;;;20.70;76.90;;;;;;5073816;28;20049;-75
2022/09/14 05:06:33;;;;;;;1.48;0.15;;;20.60;76.70;;;;;;5073789;28;20409;-75
2022/09/14 05:09:00;;;;;;;1.08;0.10;;;20.30;77.60;;;;;;5073512;28;20365;-74
2022/09/14 05:11:29;;;;;;;1.00;0.10;;;20.30;78.10;;;;;;5073421;28;20407;-74
2022/09/14 05:13:58;;;;;;;1.45;0.20;;;20.40;78.20;;;;;;5073663;28;20040;-74
2022/09/14 05:16:30;;;;;;;1.55;0.20;;;20.40;78.20;;;;;;5073016;28;20103;-74
2022/09/14 05:19:00;;;;;;;1.05;0.10;;;20.50;78.10;;;;;;5073541;28;20040;-74
2022/09/14 05:21:27;;;;;;;0.88;0.10;;;20.60;77.90;;;;;;5073508;28;20026;-74
2022/09/14 05:23:55;;;;;;;1.30;0.13;;;20.70;77.80;;;;;;5073345;28;20479;-74
2022/09/14 05:26:25;;;;;;;0.90;0.10;;;20.70;77.50;;;;;;5073404;28;20068;-75
2022/09/14 05:28:52;;;;;;;1.92;0.22;;;20.60;77.80;;;;;;5073094;28;20101;-74
2022/09/14 05:31:18;;;;;;;1.63;0.20;;;20.60;77.50;;;;;;5073216;28;20035;-74
2022/09/14 05:33:44;;;;;;;0.95;0.10;;;20.60;77.80;;;;;;5073255;28;20061;-74
2022/09/14 05:36:09;;;;;;;1.65;0.20;;;20.60;77.80;;;;;;5073274;28;20031;-74
2022/09/14 05:38:37;;;;;;;1.23;0.10;;;20.70;77.90;;;;;;5073107;28;20082;-74
2022/09/14 05:41:04;;;;;;;1.35;0.20;;;20.70;77.80;;;;;;5073427;28;20075;-74
2022/09/14 05:43:30;;;;;;;0.80;0.13;;;20.70;77.90;;;;;;5073099;28;20391;-75
2022/09/14 05:45:59;;;;;;;2.42;0.20;;;20.80;77.90;;;;;;5070781;28;20029;-77
2022/09/14 05:48:25;;;;;;;1.52;0.20;;;20.90;78.10;;;;;;5056135;28;20033;-76
2022/09/14 05:51:01;;;;;;;1.52;0.25;;;21.10;77.70;;;;;;5049482;28;20027;-75
2022/09/14 05:53:27;;;;;;;1.65;0.10;;;21.20;77.00;;;;;;5062004;28;20040;-76
2022/09/14 05:56:23;;;;;;;3.15;0.20;;;21.40;76.40;;;;;;5052924;28;20096;-76
2022/09/14 05:58:49;;;;;;;2.47;0.30;;;21.50;75.90;;;;;;5044023;28;20055;-78
2022/09/14 06:01:20;;;;;;;0.98;0.13;;;21.60;75.40;;;;;;5053290;28;20056;-77
2022/09/14 06:03:47;;;;;;;2.95;0.65;;;21.70;75.10;;;;;;5052910;28;20028;-77
2022/09/14 06:06:15;;;;;;;2.88;0.45;;;21.70;74.80;;;;;;5052938;28;20041;-78
2022/09/14 06:08:41;;;;;;;2.85;0.35;;;21.70;74.80;;;;;;5052789;28;20048;-78
2022/09/14 06:11:12;;;;;;;3.33;0.30;;;21.70;74.60;;;;;;5052705;28;20029;-80
2022/09/14 06:13:38;;;;;;;2.17;0.30;;;21.70;75.20;;;;;;5052882;28;20029;-80
2022/09/14 06:16:06;;;;;;;1.50;0.20;;;21.70;75.10;;;;;;5052812;28;20465;-80
2022/09/14 06:18:34;;;;;;;2.50;0.30;;;21.80;74.50;;;;;;5051918;28;20036;-78
2022/09/14 06:21:00;;;;;;;1.52;0.30;;;21.80;74.40;;;;;;5052222;28;20025;-82
2022/09/14 06:23:27;;;;;;;2.70;0.40;;;21.80;74.40;;;;;;5052541;28;20061;-82
2022/09/14 06:25:54;;;;;;;2.92;0.40;;;21.80;74.50;;;;;;5056299;28;20025;-76
2022/09/14 06:28:21;;;;;;;4.45;0.40;;;21.80;74.60;;;;;;5060682;28;20041;-76
2022/09/14 06:30:47;;;;;;;5.88;0.63;;;21.80;74.60;;;;;;5055040;28;20551;-76
2022/09/14 06:33:12;;;;;;;2.55;0.30;;;21.60;75.10;;;;;;5064574;28;20033;-73
2022/09/14 06:35:38;;;;;;;2.95;0.30;;;21.40;75.70;;;;;;5065710;28;20028;-74
2022/09/14 06:38:03;;;;;;;4.72;0.75;;;21.30;76.10;;;;;;5060097;28;20036;-73
2022/09/14 06:40:29;;;;;;;3.15;0.38;;;21.20;76.50;;;;;;5052062;28;20033;-72
2022/09/14 06:42:56;;;;;;;3.42;0.35;;;21.00;77.00;;;;;;5058225;28;20097;-72
2022/09/14 06:45:21;;;;;;;4.20;0.63;;;20.90;77.30;;;;;;5069785;28;20062;-73
2022/09/14 06:47:47;;;;;;;3.58;0.60;;;20.80;77.80;;;;;;5065053;28;20044;-73
2022/09/14 06:50:13;;;;;;;3.17;0.30;;;20.70;78.10;;;;;;5062360;28;20096;-72
2022/09/14 06:52:39;;;;;;;4.45;0.63;;;20.60;79.00;;;;;;5057193;28;20039;-72
2022/09/14 06:55:05;;;;;;;3.83;0.30;;;20.50;78.50;;;;;;5054714;28;20499;-73
2022/09/14 06:57:30;;;;;;;3.33;0.40;;;20.40;79.00;;;;;;5057209;28;20055;-75
2022/09/14 06:59:56;;;;;;;3.38;0.40;;;20.40;79.30;;;;;;5056936;28;20020;-74
2022/09/14 07:02:21;;;;;;;1.50;0.30;;;20.40;79.50;;;;;;5061317;28;20111;-72
2022/09/14 07:04:47;;;;;;;2.55;0.20;;;20.40;79.60;;;;;;5054440;28;20037;-73
2022/09/14 07:07:14;;;;;;;2.10;0.40;;;20.40;79.70;;;;;;5068822;28;20021;-71
2022/09/14 07:09:40;;;;;;;4.07;0.40;;;20.50;79.80;;;;;;5071650;28;20031;-73
2022/09/14 07:12:06;;;;;;;3.60;0.35;;;20.50;79.70;;;;;;5073582;28;20025;-74
2022/09/14 07:14:31;;;;;;;4.65;0.40;;;20.50;79.80;;;;;;5058988;28;20075;-74
2022/09/14 07:16:57;;;;;;;1.92;0.30;;;20.40;79.70;;;;;;5059370;28;20028;-75
2022/09/14 07:19:23;;;;;;;3.10;0.50;;;20.40;79.80;;;;;;5060532;28;20094;-74
2022/09/14 07:21:49;;;;;;;4.30;0.40;;;20.40;79.70;;;;;;5056186;28;20456;-74
2022/09/14 07:24:15;;;;;;;4.00;0.40;;;20.40;80.00;;;;;;5064963;28;20029;-74
2022/09/14 07:26:41;;;;;;;1.27;0.30;;;20.50;80.10;;;;;;5072650;28;20036;-74
2022/09/14 07:29:12;;;;;;;3.42;0.30;;;20.50;80.00;;;;;;5063580;28;20097;-74
2022/09/14 07:31:41;;;;;;;2.38;0.30;;;20.60;80.10;;;;;;5073129;28;20028;-75
2022/09/14 07:34:08;;;;;;;4.03;0.60;;;20.60;79.90;;;;;;5063889;28;20031;-75
2022/09/14 07:36:35;;;;;;;2.25;0.40;;;20.70;79.80;;;;;;5066125;28;20032;-75
2022/09/14 07:39:03;;;;;;;4.05;0.40;;;20.60;79.60;;;;;;5069727;28;20032;-75
2022/09/14 07:41:31;;;;;;;2.88;0.30;;;20.60;79.70;;;;;;5072672;28;20021;-75
2022/09/14 07:43:59;;;;;;;4.03;0.30;;;20.60;79.50;;;;;;5063291;28;20025;-75
2022/09/14 07:46:26;;;;;;;3.50;0.47;;;20.50;80.00;;;;;;5055700;28;20025;-75
2022/09/14 07:48:57;;;;;;;3.50;0.40;;;20.40;79.70;;;;;;5066863;28;20021;-74
2022/09/14 07:51:24;;;;;;;5.28;0.50;;;20.40;80.00;;;;;;5063225;28;20078;-75
2022/09/14 07:53:50;;;;;;;6.95;0.60;;;20.40;80.00;;;;;;5065611;28;20530;-76
2022/09/14 07:56:16;;;;;;;5.80;0.40;;;20.40;80.00;;;;;;5054845;28;20033;-76
2022/09/14 07:58:42;;;;;;;6.80;1.00;;;20.40;79.70;;;;;;5066851;28;20087;-76
2022/09/14 08:01:16;;;;;;;5.22;0.50;;;20.40;79.80;;;;;;5052092;28;20468;-76
2022/09/14 08:03:43;;;;;;;2.20;0.40;;;20.40;80.30;;;;;;5056746;28;20032;-76
2022/09/14 08:06:19;;;;;;;4.03;0.57;;;20.50;80.50;;;;;;5060446;28;20036;-75
2022/09/14 08:08:46;;;;;;;5.00;0.55;;;20.50;80.20;;;;;;5067190;28;20041;-75
2022/09/14 08:11:15;;;;;;;3.47;0.38;;;20.50;80.20;;;;;;5072408;28;20020;-73
2022/09/14 08:13:43;;;;;;;4.35;0.45;;;20.40;80.20;;;;;;5059300;28;20037;-73
2022/09/14 08:16:10;;;;;;;5.68;0.30;;;20.50;80.40;;;;;;5061019;28;20020;-73
2022/09/14 08:18:36;;;;;;;2.20;0.50;;;20.40;79.90;;;;;;5062598;28;20040;-73
2022/09/14 08:21:07;;;;;;;3.55;0.40;;;20.30;79.60;;;;;;5054662;28;20472;-73
2022/09/14 08:23:34;;;;;;;2.00;0.30;;;20.20;80.60;;;;;;5067733;28;20564;-74
2022/09/14 08:26:07;;;;;;;3.28;0.30;;;20.20;81.00;;;;;;5054365;28;20060;-74
2022/09/14 08:28:35;;;;;;;4.32;0.40;;;20.30;81.30;;;;;;5068103;28;20087;-74
2022/09/14 08:31:12;;;;;;;4.05;0.43;;;20.30;81.20;;;;;;5066648;28;20488;-76
2022/09/14 08:33:43;;;;;;;3.03;0.20;;;20.30;81.20;;;;;;5059981;28;20103;-76
2022/09/14 08:36:11;;;;;;;2.85;0.40;;;20.30;81.80;;;;;;5070121;28;20116;-76
2022/09/14 08:38:37;;;;;;;2.50;0.52;;;20.30;81.20;;;;;;5057343;28;20037;-77
2022/09/14 08:41:33;;;;;;;4.07;0.40;;;20.30;81.60;;;;;;5067108;28;20028;-74
2022/09/14 08:44:15;;;;;;;2.35;0.50;;;20.40;81.70;;;;;;5051927;28;20039;-72
2022/09/14 08:46:45;;;;;;;4.30;0.47;;;20.30;81.60;;;;;;5053829;28;20032;-72
2022/09/14 08:49:40;;;;;;;2.30;0.20;;;20.40;82.10;;;;;;5062502;28;20035;-73
2022/09/14 08:52:30;;;;;;;6.38;0.30;;;20.30;81.90;;;;;;5052742;28;20025;-73
2022/09/14 08:54:59;;;;;;;2.95;0.40;;;20.30;82.10;;;;;;5055671;28;20032;-72
2022/09/14 08:57:41;;;;;;;5.60;0.60;;;20.30;82.10;;;;;;5060495;28;20495;-70
2022/09/14 09:00:16;;;;;;;1.27;0.30;;;20.30;82.40;;;;;;5051826;28;20056;-71
2022/09/14 09:03:02;;;;;;;4.05;0.70;;;20.40;83.00;;;;;;5064951;28;20462;-70
2022/09/14 09:05:38;;;;;;;4.65;0.40;;;20.30;83.00;;;;;;5063003;28;20064;-70
2022/09/14 09:08:21;;;;;;;2.97;0.50;;;20.20;82.00;;;;;;5052821;28;20028;-70
2022/09/14 09:10:50;;;;;;;3.30;0.50;;;20.20;82.80;;;;;;5057989;28;20384;-71
2022/09/14 09:13:22;;;;;;;5.47;0.50;;;20.20;83.20;;;;;;5063759;28;20123;-71
2022/09/14 09:15:52;;;;;;;4.25;0.52;;;20.20;83.40;;;;;;5056719;28;20035;-72
2022/09/14 09:18:33;;;;;;;4.00;0.30;;;20.20;83.10;;;;;;5051199;28;20051;-72
2022/09/14 09:21:08;;;;;;;4.15;0.52;;;20.00;82.30;;;;;;5052677;28;20021;-72
2022/09/14 09:23:34;;;;;;;2.90;0.43;;;19.80;83.10;;;;;;5053868;28;20111;-71
2022/09/14 09:26:08;;;;;;;3.55;0.40;;;19.90;83.80;;;;;;5054372;28;20033;-72
2022/09/14 09:28:42;;;;;;;3.83;0.30;;;19.80;83.00;;;;;;5054253;28;20065;-74
2022/09/14 09:31:13;;;;;;;3.45;0.40;;;19.70;82.40;;;;;;5061308;28;20055;-75
2022/09/14 09:33:39;;;;;;;3.83;0.38;;;19.40;82.90;;;;;;5061287;28;20111;-73
2022/09/14 09:36:07;;;;;;;6.00;0.55;;;19.50;83.80;;;;;;5051960;28;20151;-72
2022/09/14 09:38:33;;;;;;;2.38;0.30;;;19.40;84.50;;;;;;5055908;28;20036;-72
2022/09/14 09:41:04;;;;;;;3.25;0.20;;;19.50;84.70;;;;;;5049878;28;20108;-72
2022/09/14 09:43:30;;;;;;;3.05;0.32;;;19.40;84.40;;;;;;5061821;28;20031;-74
2022/09/14 09:46:02;;;;;;;3.50;0.47;;;19.10;84.20;;;;;;5067231;28;20033;-73
2022/09/14 09:48:40;;;;;;;2.17;0.30;;;19.10;85.80;;;;;;5051878;28;20120;-71
2022/09/14 09:51:23;;;;;;;4.60;0.40;;;19.30;86.40;;;;;;5053557;28;20086;-72
2022/09/14 09:54:02;;;;;;;4.47;0.40;;;19.40;85.30;;;;;;5056245;28;20025;-72
2022/09/14 09:56:35;;;;;;;2.75;0.30;;;19.40;85.30;;;;;;5063021;28;20032;-76
2022/09/14 09:59:02;;;;;;;2.85;0.30;;;19.40;85.50;;;;;;5053651;28;20111;-77
2022/09/14 10:01:30;;;;;;;6.60;0.30;;;19.40;86.30;;;;;;5058610;28;20029;-75
2022/09/14 10:04:14;;;;;;;2.05;0.30;;;19.50;86.90;;;;;;5069237;28;21175;-73
2022/09/14 10:06:45;;;;;;;3.30;0.38;;;19.60;85.60;;;;;;5053433;28;20047;-73
2022/09/14 10:09:22;;;;;;;4.75;0.50;;;19.70;84.50;;;;;;5052865;28;20029;-73
2022/09/14 10:11:59;;;;;;;5.18;0.85;;;19.60;83.80;;;;;;5052683;28;20021;-74
2022/09/14 10:14:27;;;;;;;3.70;0.38;;;19.50;84.10;;;;;;5052664;28;20389;-73
2022/09/14 10:17:04;;;;;;;4.47;0.35;;;19.50;84.30;;;;;;5053022;28;20018;-73
2022/09/14 10:19:31;;;;;;;1.80;0.30;;;19.40;83.70;;;;;;5052338;28;20072;-74
2022/09/14 10:22:12;;;;;;;5.22;0.43;;;19.40;83.40;;;;;;5052299;28;20372;-74
2022/09/14 10:24:37;;;;;;;3.20;0.60;;;19.30;83.40;;;;;;5050610;28;20032;-74
2022/09/14 10:27:41;;;;;;;4.03;0.30;;;19.40;83.60;;;;;;5051092;28;20103;-74
2022/09/14 10:30:22;;;;;;;4.55;0.50;;;19.30;83.50;;;;;;5051263;28;20489;-74
2022/09/14 10:33:04;;;;;;;5.28;0.57;;;19.30;84.10;;;;;;5050712;28;20028;-75
2022/09/14 10:35:41;;;;;;;4.95;0.40;;;19.10;84.60;;;;;;5051671;28;20025;-75
2022/09/14 10:38:36;;;;;;;3.95;0.70;;;19.10;85.00;;;;;;5052240;28;20049;-74
2022/09/14 10:41:21;;;;;;;4.38;0.70;;;19.10;86.00;;;;;;5054799;28;20033;-72
2022/09/14 10:44:24;;;;;;;3.05;0.57;;;19.20;85.90;;;;;;5056288;28;20079;-74
2022/09/14 10:46:50;;;;;;;;;;;19.30;86.10;;;;;;5056654;28;20045;-74
2022/09/14 10:49:46;;;;;;;3.28;1.27;;;19.40;85.60;;;;;;5056352;28;20334;-74
2022/09/14 10:52:24;;;;;;;5.78;0.77;;;19.40;85.80;;;;;;5056535;28;20029;-74
2022/09/14 10:55:23;;;;;;;3.97;0.93;;;19.40;85.90;;;;;;5056132;28;20036;-74
2022/09/14 10:58:23;;;;;;;3.25;0.68;;;19.40;85.80;;;;;;5056296;28;20502;-73
2022/09/14 11:01:10;;;;;;;4.28;0.80;;;19.50;85.60;;;;;;5056234;28;20761;-73
2022/09/14 11:03:38;;;;;;;4.22;0.60;;;19.50;85.40;;;;;;5055832;28;20029;-74
2022/09/14 11:06:28;;;;;;;3.40;0.90;;;19.50;85.60;;;;;;5056139;28;20024;-73
2022/09/14 11:09:09;;;;;;;6.15;0.95;;;19.50;85.30;;;;;;5056171;28;20384;-74
2022/09/14 11:12:07;;;;;;;3.22;0.50;;;19.50;85.30;;;;;;5056146;28;20029;-73
2022/09/14 11:14:54;;;;;;;7.00;1.30;;;19.40;85.90;;;;;;5055307;28;20079;-73
2022/09/14 11:17:38;;;;;;;5.93;0.93;;;19.30;85.60;;;;;;5055643;28;20021;-74
2022/09/14 11:20:19;;;;;;;4.72;1.58;;;19.30;85.50;;;;;;5055899;28;20043;-74
2022/09/14 11:22:50;;;;;;;5.55;0.60;;;19.20;86.00;;;;;;5055697;28;20048;-74
2022/09/14 11:25:21;;;;;;;5.53;0.75;;;19.20;86.70;;;;;;5055488;28;20029;-74
2022/09/14 11:27:58;;;;;;;4.22;1.10;;;19.20;86.20;;;;;;5055213;28;20178;-74
2022/09/14 11:30:33;;;;;;;7.28;1.02;;;19.30;86.60;;;;;;5055890;28;20396;-73
2022/09/14 11:33:33;;;;;;;5.43;1.30;;;19.30;86.70;;;;;;5055777;28;20104;-73
2022/09/14 11:36:22;;;;;;;5.30;1.17;;;19.20;87.00;;;;;;5053924;28;20499;-73
2022/09/14 11:38:59;;;;;;;3.53;1.17;;;19.30;86.90;;;;;;5055605;28;20045;-73
2022/09/14 11:41:30;;;;;;;4.57;1.30;;;19.30;86.70;;;;;;5055423;28;20172;-73
2022/09/14 11:44:05;;;;;;;5.25;1.40;;;19.40;86.60;;;;;;5054945;28;20033;-73
2022/09/14 11:46:35;;;;;;;5.45;1.42;;;19.30;86.80;;;;;;5055416;28;20021;-73
2022/09/14 11:49:12;;;;;;;6.13;1.17;;;19.30;87.10;;;;;;5055515;28;20408;-73
2022/09/14 11:52:19;;;;;;;4.75;0.90;;;19.30;87.10;;;;;;5054155;28;20033;-73
2022/09/14 11:54:46;;;;;;;6.75;1.40;;;19.40;86.60;;;;;;5055044;28;20096;-74
2022/09/14 11:57:27;;;;;;;3.80;1.10;;;19.50;86.30;;;;;;5054230;28;20087;-74
2022/09/14 12:00:05;;;;;;;3.30;0.77;;;19.60;86.20;;;;;;5054231;28;20428;-73
2022/09/14 12:02:31;;;;;;;3.40;1.13;;;19.60;86.30;;;;;;5054410;28;20025;-73
2022/09/14 12:05:09;;;;;;;6.15;1.30;;;19.70;86.90;;;;;;5053177;28;20047;-73
2022/09/14 12:07:46;;;;;;;5.50;1.35;;;19.70;86.40;;;;;;5053843;28;20082;-74
2022/09/14 12:10:17;;;;;;;7.63;1.20;;;19.70;86.20;;;;;;5054463;28;20033;-74
2022/09/14 12:12:50;;;;;;;4.70;1.23;;;19.80;86.10;;;;;;5054821;28;20021;-74
2022/09/14 12:15:36;;;;;;;8.43;1.20;;;19.90;86.30;;;;;;5054284;28;20028;-74
2022/09/14 12:18:08;;;;;;;6.75;1.58;;;19.90;86.30;;;;;;5054749;28;20029;-74
2022/09/14 12:20:36;;;;;;;6.65;1.58;;;20.00;86.30;;;;;;5054474;28;20045;-74
2022/09/14 12:23:10;;;;;;;6.75;1.40;;;20.00;86.10;;;;;;5054152;28;20017;-74
2022/09/14 12:25:38;;;;;;;5.18;1.65;;;20.00;85.70;;;;;;5054447;28;20028;-74
2022/09/14 12:28:38;;;;;;;5.38;1.70;;;20.10;85.40;;;;;;5054329;28;20063;-74
2022/09/14 12:31:04;;;;;;;9.27;2.22;;;20.10;85.40;;;;;;5054436;28;20075;-74
2022/09/14 12:33:35;;;;;;;3.45;1.30;;;20.10;85.30;;;;;;5054289;28;20416;-74
2022/09/14 12:36:05;;;;;;;5.72;1.10;;;20.00;85.60;;;;;;5054077;28;20029;-73
2022/09/14 12:38:30;;;;;;;4.40;1.25;;;20.00;86.00;;;;;;5054347;28;20102;-73
2022/09/14 12:41:14;;;;;;;4.50;1.55;;;20.00;86.10;;;;;;5054549;28;20021;-73
2022/09/14 12:43:48;;;;;;;5.80;1.95;;;20.10;86.00;;;;;;5054376;28;20076;-73
2022/09/14 12:46:20;;;;;;;4.35;1.55;;;20.00;85.50;;;;;;5054213;28;20021;-73
2022/09/14 12:48:53;;;;;;;6.73;1.33;;;19.80;86.40;;;;;;5053947;28;20091;-73
2022/09/14 12:51:31;;;;;;;;;;;19.80;87.10;;;;;;5054737;28;20025;-73
2022/09/14 12:54:28;;;;;;;5.30;1.00;;;19.70;86.70;;;;;;5054137;28;19912;-73
2022/09/14 12:57:02;;;;;;;7.68;1.23;;;19.70;87.00;;;;;;5053681;28;20103;-73
2022/09/14 12:59:34;;;;;;;4.20;0.85;;;19.80;86.70;;;;;;5052489;28;20036;-76
2022/09/14 13:02:09;;;;;;;6.50;0.95;;;19.80;86.70;;;;;;5054080;28;20021;-76
2022/09/14 13:04:37;;;;;;;6.68;0.90;;;19.90;86.60;;;;;;5053932;28;20116;-73
2022/09/14 13:07:13;;;;;;;9.43;1.63;;;20.00;86.70;;;;;;5053890;28;20029;-73
2022/09/14 13:09:54;;;;;;;8.60;1.05;;;20.10;86.60;;;;;;5053842;28;20025;-73
2022/09/14 13:12:30;;;;;;;7.15;1.02;;;19.90;86.20;;;;;;5053815;28;20025;-73